Time;durP1;ratioP1;P1;durP2;ratioP2;P2;SDS_P1;SDS_P2;PMS_P1;PMS_P2;Temp;Humidity;BMP_temperature;BMP_pressure;BME280_temperature;BME280_humidity;BME280_pressure;Samples;Min_cycle;Max_cycle;Signal;HPM_P1;HPM_P2
2021/12/25 00:00:07;;;;;;;1059.50;990.15;;;;;;;-1.39;57.98;100466.22;683952;28;22169;-68
2021/12/25 00:00:30;;;;;;;1066.47;996.97;;;;;;;-1.37;58.08;100474.06;682735;28;59313;-68
2021/12/25 00:00:52;;;;;;;1069.68;999.22;;;;;;;-1.37;58.31;100469.59;683399;28;23409;-68
2021/12/25 00:01:14;;;;;;;1065.93;994.97;;;;;;;-1.34;58.81;100464.09;681149;29;19759;-67
2021/12/25 00:01:39;;;;;;;1065.68;995.05;;;;;;;-1.32;58.51;100469.28;680248;28;69502;-68
2021/12/25 00:02:05;;;;;;;1060.03;990.17;;;;;;;-1.31;58.71;100469.19;680320;28;115076;-68
2021/12/25 00:02:27;;;;;;;1059.53;989.42;;;;;;;-1.32;58.22;100469.28;680587;28;113532;-67
2021/12/25 00:02:49;;;;;;;1060.90;991.00;;;;;;;-1.33;58.04;100475.56;682209;28;46255;-68
2021/12/25 00:03:11;;;;;;;1060.80;991.15;;;;;;;-1.33;58.11;100470.25;684060;28;67372;-68
2021/12/25 00:03:32;;;;;;;1062.05;991.75;;;;;;;-1.40;58.16;100459.22;685820;28;21162;-68
2021/12/25 00:03:55;;;;;;;1061.32;991.17;;;;;;;-1.35;57.83;100467.72;685846;28;45250;-67
2021/12/25 00:04:18;;;;;;;1049.55;980.10;;;;;;;-1.39;57.72;100462.72;684947;28;69318;-67
2021/12/25 00:04:39;;;;;;;1059.82;990.03;;;;;;;-1.39;57.57;100473.34;683056;28;46436;-67
2021/12/25 00:05:00;;;;;;;1064.55;994.95;;;;;;;-1.39;57.74;100476.81;683786;28;22393;-68
2021/12/25 00:05:21;;;;;;;1065.43;995.58;;;;;;;-1.41;57.34;100473.44;684003;28;21392;-67
2021/12/25 00:05:44;;;;;;;1066.80;996.38;;;;;;;-1.45;56.87;100472.78;683917;28;22381;-68
2021/12/25 00:06:06;;;;;;;1064.78;994.25;;;;;;;-1.47;56.55;100474.69;681265;28;92240;-68
2021/12/25 00:06:27;;;;;;;1057.65;987.47;;;;;;;-1.49;56.44;100476.63;684567;28;21531;-68
2021/12/25 00:06:49;;;;;;;1064.47;994.03;;;;;;;-1.51;56.50;100478.50;686659;28;22395;-68
2021/12/25 00:07:10;;;;;;;1062.25;991.85;;;;;;;-1.54;56.30;100473.41;685821;28;45206;-68
2021/12/25 00:07:31;;;;;;;1059.47;988.65;;;;;;;-1.56;56.54;100474.50;685730;28;45238;-68
2021/12/25 00:07:52;;;;;;;1077.93;999.90;;;;;;;-1.56;56.62;100475.34;685599;28;22416;-68
2021/12/25 00:08:14;;;;;;;1096.47;999.90;;;;;;;-1.56;56.82;100475.34;686244;28;21340;-68
2021/12/25 00:08:36;;;;;;;1102.55;999.90;;;;;;;-1.57;57.07;100475.44;686903;28;22423;-68
2021/12/25 00:08:57;;;;;;;1086.32;999.90;;;;;;;-1.57;57.15;100478.09;685168;28;69415;-68
2021/12/25 00:09:18;;;;;;;1083.45;999.90;;;;;;;-1.56;57.31;100479.78;687063;28;21490;-68
2021/12/25 00:09:39;;;;;;;1083.40;999.90;;;;;;;-1.58;57.33;100482.53;686982;28;22164;-68
2021/12/25 00:10:00;;;;;;;1091.05;999.90;;;;;;;-1.55;57.34;100486.75;687140;28;22413;-69
2021/12/25 00:10:22;;;;;;;1097.95;999.90;;;;;;;-1.59;57.44;100475.53;687103;28;24325;-68
2021/12/25 00:10:43;;;;;;;1083.18;999.90;;;;;;;-1.56;57.51;100482.44;686293;28;45260;-68
2021/12/25 00:11:07;;;;;;;1063.05;992.65;;;;;;;-1.56;57.85;100485.94;684107;28;23155;-68
2021/12/25 00:11:28;;;;;;;1071.45;999.90;;;;;;;-1.54;58.04;100489.31;681690;28;91463;-68
2021/12/25 00:11:50;;;;;;;1071.97;999.88;;;;;;;-1.53;57.99;100483.06;684126;28;21505;-68
2021/12/25 00:12:11;;;;;;;1076.03;999.90;;;;;;;-1.51;58.38;100477.66;683235;28;42980;-68
2021/12/25 00:12:32;;;;;;;1069.18;998.08;;;;;;;-1.52;58.26;100482.13;684171;28;21679;-68
2021/12/25 00:12:54;;;;;;;1069.22;998.03;;;;;;;-1.50;58.22;100482.84;684019;28;21544;-68
2021/12/25 00:13:18;;;;;;;1068.78;997.38;;;;;;;-1.48;58.08;100485.41;686235;28;45164;-68
2021/12/25 00:13:41;;;;;;;1075.20;999.90;;;;;;;-1.49;58.27;100483.69;682968;28;92473;-68
2021/12/25 00:14:09;;;;;;;1069.63;998.42;;;;;;;-1.47;58.44;100487.94;686102;28;45254;-68
2021/12/25 00:14:31;;;;;;;1086.38;999.90;;;;;;;-1.47;58.41;100481.81;682645;28;138110;-68
2021/12/25 00:14:53;;;;;;;1097.85;999.90;;;;;;;-1.45;58.41;100487.84;686454;28;21506;-68
2021/12/25 00:15:14;;;;;;;1102.93;999.90;;;;;;;-1.45;58.21;100479.88;686022;28;46304;-68
2021/12/25 00:15:35;;;;;;;1100.50;999.90;;;;;;;-1.46;58.20;100480.84;686532;28;21287;-68
2021/12/25 00:15:56;;;;;;;1085.07;999.90;;;;;;;-1.45;58.32;100480.72;685271;28;46420;-68
2021/12/25 00:16:18;;;;;;;1077.03;999.90;;;;;;;-1.41;58.88;100485.81;684018;28;22369;-68
2021/12/25 00:16:39;;;;;;;1081.40;999.90;;;;;;;-1.42;58.36;100489.44;683208;28;46297;-68
2021/12/25 00:17:01;;;;;;;1089.25;999.90;;;;;;;-1.43;58.04;100485.09;683871;28;23344;-69
2021/12/25 00:17:22;;;;;;;1087.68;999.90;;;;;;;-1.45;57.86;100487.84;682611;28;44373;-68
2021/12/25 00:17:43;;;;;;;1086.53;999.90;;;;;;;-1.43;58.10;100490.38;679997;29;21013;-68
2021/12/25 00:18:05;;;;;;;1084.60;999.90;;;;;;;-1.44;58.17;100489.53;681456;29;21224;-68
2021/12/25 00:18:27;;;;;;;1087.75;999.90;;;;;;;-1.44;58.06;100484.25;679834;29;45231;-68
2021/12/25 00:18:48;;;;;;;1089.63;999.90;;;;;;;-1.47;58.04;100481.81;679865;29;44373;-68
2021/12/25 00:19:10;;;;;;;1092.00;999.90;;;;;;;-1.47;58.00;100493.25;681276;28;20731;-68
2021/12/25 00:19:31;;;;;;;1097.40;999.90;;;;;;;-1.47;58.12;100484.47;683944;28;45237;-68
2021/12/25 00:19:52;;;;;;;1097.43;999.90;;;;;;;-1.48;57.92;100490.69;686937;28;23244;-68
2021/12/25 00:20:13;;;;;;;1092.80;999.90;;;;;;;-1.49;57.61;100494.28;687039;28;22371;-68
2021/12/25 00:20:35;;;;;;;1107.32;999.90;;;;;;;-1.52;57.69;100494.50;687018;28;22250;-68
2021/12/25 00:20:58;;;;;;;1111.43;999.90;;;;;;;-1.51;57.93;100491.75;686128;28;44522;-68
2021/12/25 00:21:19;;;;;;;1092.97;999.90;;;;;;;-1.52;57.66;100492.72;685219;28;67484;-68
2021/12/25 00:21:41;;;;;;;1078.53;999.90;;;;;;;-1.52;57.60;100491.84;686933;28;21532;-68
2021/12/25 00:22:02;;;;;;;1080.50;999.90;;;;;;;-1.56;57.36;100496.53;686159;28;29552;-68
2021/12/25 00:22:24;;;;;;;1083.22;999.90;;;;;;;-1.56;57.49;100488.56;685571;28;45200;-69
2021/12/25 00:22:45;;;;;;;1100.57;999.90;;;;;;;-1.58;57.23;100495.78;686184;28;21475;-68
2021/12/25 00:23:08;;;;;;;1112.88;999.90;;;;;;;-1.61;56.98;100492.47;686914;28;22391;-68
2021/12/25 00:23:29;;;;;;;1108.05;999.90;;;;;;;-1.63;57.12;100497.88;685466;28;70204;-68
2021/12/25 00:23:51;;;;;;;1091.43;999.90;;;;;;;-1.67;57.26;100488.47;683962;28;22007;-68
2021/12/25 00:24:13;;;;;;;1085.13;999.90;;;;;;;-1.69;57.23;100488.56;683282;28;46316;-68
2021/12/25 00:24:34;;;;;;;1105.43;999.90;;;;;;;-1.70;56.99;100488.69;683409;28;46413;-68
2021/12/25 00:24:55;;;;;;;1109.53;999.90;;;;;;;-1.71;57.18;100490.47;684151;28;22182;-68
2021/12/25 00:25:18;;;;;;;1108.28;999.90;;;;;;;-1.74;57.07;100489.81;684329;28;23473;-68
2021/12/25 00:25:45;;;;;;;1111.47;999.90;;;;;;;-1.76;57.10;100495.22;681984;28;69347;-68
2021/12/25 00:26:10;;;;;;;1102.03;999.90;;;;;;;-1.80;57.16;100480.50;681598;28;138030;-68
2021/12/25 00:26:45;;;;;;;1101.78;999.90;;;;;;;-1.81;57.26;100484.09;682735;28;136498;-68
2021/12/25 00:27:22;;;;;;;1105.43;999.90;;;;;;;-1.84;57.33;100487.78;679478;28;137749;-68
2021/12/25 00:27:52;;;;;;;1116.65;999.90;;;;;;;-1.85;57.50;100487.91;678992;28;137704;-69
2021/12/25 00:28:34;;;;;;;1100.82;999.90;;;;;;;-1.87;57.62;100490.66;677879;28;160643;-69
2021/12/25 00:29:03;;;;;;;1120.70;999.90;;;;;;;-1.86;58.26;100487.06;679586;28;137733;-68
2021/12/25 00:29:37;;;;;;;1097.35;999.90;;;;;;;-1.85;58.35;100485.25;677604;28;138007;-68
2021/12/25 00:30:12;;;;;;;1098.80;999.90;;;;;;;-1.83;58.19;100489.50;678030;28;137370;-68
2021/12/25 00:30:40;;;;;;;1109.68;999.90;;;;;;;-1.83;58.49;100483.38;679440;28;137714;-68
2021/12/25 00:31:09;;;;;;;1123.97;999.90;;;;;;;-1.81;59.05;100481.44;679682;28;138175;-68
2021/12/25 00:31:46;;;;;;;1124.97;999.90;;;;;;;-1.80;58.89;100491.09;678582;28;137696;-68
2021/12/25 00:32:32;;;;;;;1108.88;999.90;;;;;;;-1.80;58.79;100488.47;681087;28;138115;-68
2021/12/25 00:33:00;;;;;;;1108.03;999.90;;;;;;;-1.80;58.70;100488.47;678057;28;137159;-68
2021/12/25 00:33:34;;;;;;;1108.00;999.90;;;;;;;-1.82;58.63;100482.41;681328;28;136460;-68
2021/12/25 00:33:58;;;;;;;1087.88;999.90;;;;;;;-1.83;58.57;100486.00;683482;28;137790;-68
2021/12/25 00:34:23;;;;;;;1089.72;999.90;;;;;;;-1.85;58.34;100488.75;684316;28;92264;-68
2021/12/25 00:34:45;;;;;;;1095.80;999.90;;;;;;;-1.85;58.40;100479.94;680872;28;115029;-68
2021/12/25 00:35:07;;;;;;;1083.35;999.90;;;;;;;-1.84;58.61;100487.78;680220;29;67373;-68
2021/12/25 00:35:30;;;;;;;1075.03;999.90;;;;;;;-1.84;58.65;100489.59;678356;29;46351;-69
2021/12/25 00:35:56;;;;;;;1079.95;999.90;;;;;;;-1.84;58.49;100486.94;678728;29;37124;-68
2021/12/25 00:36:19;;;;;;;1065.82;993.22;;;;;;;-1.86;58.47;100491.50;678557;29;46378;-68
2021/12/25 00:36:41;;;;;;;1069.80;997.03;;;;;;;-1.85;58.58;100495.84;678484;29;92266;-68
2021/12/25 00:37:03;;;;;;;1069.82;997.13;;;;;;;-1.88;58.35;100491.63;682726;28;46610;-68
2021/12/25 00:37:26;;;;;;;1067.05;994.42;;;;;;;-1.87;58.44;100492.47;685467;28;44361;-68
2021/12/25 00:37:48;;;;;;;1068.07;995.28;;;;;;;-1.88;58.56;100494.25;684793;28;67476;-68
2021/12/25 00:38:09;;;;;;;1067.18;994.38;;;;;;;-1.87;58.60;100497.75;686865;28;46272;-68
2021/12/25 00:38:31;;;;;;;1068.10;995.30;;;;;;;-1.87;58.62;100492.47;684313;28;21528;-68
2021/12/25 00:38:53;;;;;;;1067.93;995.13;;;;;;;-1.89;58.50;100491.72;680641;29;46464;-68
2021/12/25 00:39:15;;;;;;;1073.15;999.85;;;;;;;-1.89;58.37;100508.44;678644;29;44349;-68
2021/12/25 00:39:37;;;;;;;1077.88;999.90;;;;;;;-1.91;58.49;100499.75;678521;29;46112;-68
2021/12/25 00:39:58;;;;;;;1089.82;999.90;;;;;;;-1.92;58.26;100499.88;675422;29;46429;-68
2021/12/25 00:40:19;;;;;;;1098.10;999.90;;;;;;;-1.92;58.07;100503.34;677263;29;23449;-68
2021/12/25 00:40:41;;;;;;;1101.10;999.90;;;;;;;-1.93;58.35;100498.16;679993;29;22237;-68
2021/12/25 00:41:03;;;;;;;1104.82;999.90;;;;;;;-1.95;58.38;100500.06;678342;29;45255;-68
2021/12/25 00:41:24;;;;;;;1110.15;999.90;;;;;;;-1.95;58.54;100506.19;677380;29;46412;-68
2021/12/25 00:41:45;;;;;;;1111.07;999.90;;;;;;;-1.97;58.21;100507.28;675817;29;23378;-68
2021/12/25 00:42:08;;;;;;;1111.55;999.90;;;;;;;-1.99;58.56;100504.72;679277;29;22420;-68
2021/12/25 00:42:30;;;;;;;1111.78;999.90;;;;;;;-1.98;58.74;100503.75;678187;29;67490;-68
2021/12/25 00:42:51;;;;;;;1106.20;999.90;;;;;;;-1.97;58.76;100510.75;681268;28;7198;-68
2021/12/25 00:43:13;;;;;;;1092.85;999.90;;;;;;;-1.99;59.04;100504.72;685287;28;22177;-68
2021/12/25 00:43:34;;;;;;;1082.93;999.90;;;;;;;-1.97;59.24;100510.75;680994;28;45616;-68
2021/12/25 00:43:55;;;;;;;1089.03;999.90;;;;;;;-1.98;59.17;100506.41;684508;28;22387;-68
2021/12/25 00:44:16;;;;;;;1088.80;999.90;;;;;;;-2.00;58.97;100503.84;684579;28;22387;-68
2021/12/25 00:44:39;;;;;;;1082.57;999.90;;;;;;;-2.00;58.86;100509.16;680670;29;46230;-68
2021/12/25 00:45:00;;;;;;;1083.90;999.90;;;;;;;-1.99;58.98;100507.38;680556;29;43991;-68
2021/12/25 00:45:21;;;;;;;1097.15;999.90;;;;;;;-2.01;58.82;100506.59;679090;28;44361;-69
2021/12/25 00:45:42;;;;;;;1093.07;999.90;;;;;;;-2.01;58.66;100509.25;684462;28;23376;-69
2021/12/25 00:46:04;;;;;;;1084.40;999.90;;;;;;;-2.06;58.75;100506.91;684095;28;23437;-69
2021/12/25 00:46:26;;;;;;;1082.18;999.90;;;;;;;-2.05;58.77;100510.44;684710;28;22380;-69
2021/12/25 00:46:47;;;;;;;1090.07;999.90;;;;;;;-2.06;58.71;100511.38;683710;28;43943;-69
2021/12/25 00:47:08;;;;;;;1083.55;999.90;;;;;;;-2.06;58.84;100511.38;684517;28;23481;-69
2021/12/25 00:47:29;;;;;;;1074.15;999.70;;;;;;;-2.08;58.98;100514.13;683290;28;44416;-69
2021/12/25 00:47:51;;;;;;;1072.78;999.67;;;;;;;-2.07;58.97;100512.31;683422;28;21304;-68
2021/12/25 00:48:12;;;;;;;1078.80;999.90;;;;;;;-2.07;59.14;100512.31;683778;28;46205;-68
2021/12/25 00:48:34;;;;;;;1075.93;999.90;;;;;;;-2.07;59.15;100520.25;684334;28;23460;-68
2021/12/25 00:48:55;;;;;;;1075.80;999.90;;;;;;;-2.08;59.09;100514.13;681487;29;22372;-68
2021/12/25 00:49:16;;;;;;;1079.95;999.90;;;;;;;-2.11;59.01;100506.38;681887;29;21505;-68
2021/12/25 00:49:38;;;;;;;1072.72;999.70;;;;;;;-2.10;59.09;100516.03;681116;29;46340;-68
2021/12/25 00:49:59;;;;;;;1071.03;998.15;;;;;;;-2.10;59.13;100518.66;678041;29;44996;-68
2021/12/25 00:50:21;;;;;;;1067.85;995.17;;;;;;;-2.10;58.92;100523.09;682100;29;21545;-68
2021/12/25 00:50:43;;;;;;;1064.95;992.33;;;;;;;-2.13;58.81;100518.88;680734;29;46324;-68
2021/12/25 00:51:05;;;;;;;1061.10;988.60;;;;;;;-2.09;59.20;100519.50;681040;28;45156;-68
2021/12/25 00:51:27;;;;;;;1061.43;988.92;;;;;;;-2.08;59.21;100522.06;684456;28;22386;-68
2021/12/25 00:51:48;;;;;;;1050.82;978.72;;;;;;;-2.10;59.08;100515.16;683050;28;69657;-68
2021/12/25 00:52:09;;;;;;;1046.25;974.38;;;;;;;-2.07;59.30;100528.19;684535;28;21539;-68
2021/12/25 00:52:31;;;;;;;1051.43;979.35;;;;;;;-2.08;59.26;100522.06;685190;28;22060;-68
2021/12/25 00:52:53;;;;;;;1053.40;981.20;;;;;;;-2.07;59.24;100529.06;682401;28;45266;-68
2021/12/25 00:53:14;;;;;;;1060.10;987.70;;;;;;;-2.08;58.85;100529.16;684264;28;21525;-68
2021/12/25 00:53:35;;;;;;;1057.00;984.67;;;;;;;-2.09;58.78;100527.44;683985;28;46311;-68
2021/12/25 00:53:57;;;;;;;1064.00;991.30;;;;;;;-2.11;58.85;100527.53;681402;28;21438;-68
2021/12/25 00:54:18;;;;;;;1054.53;982.17;;;;;;;-2.14;58.49;100527.75;680399;29;46367;-68
2021/12/25 00:54:40;;;;;;;1052.07;979.92;;;;;;;-2.17;58.58;100527.94;682555;28;22215;-68
2021/12/25 00:55:04;;;;;;;1055.60;983.35;;;;;;;-2.20;58.46;100521.03;683760;28;43786;-68
2021/12/25 00:55:26;;;;;;;1064.72;992.10;;;;;;;-2.21;58.44;100531.72;679319;29;90688;-68
2021/12/25 00:55:47;;;;;;;1071.40;998.50;;;;;;;-2.22;58.58;100530.06;682267;28;45227;-68
2021/12/25 00:56:09;;;;;;;1070.43;997.53;;;;;;;-2.23;58.69;100526.53;685747;28;21002;-68
2021/12/25 00:56:30;;;;;;;1070.45;997.50;;;;;;;-2.24;58.78;100532.78;686692;28;22381;-68
2021/12/25 00:56:51;;;;;;;1065.65;992.95;;;;;;;-2.26;58.87;100529.38;686141;28;45231;-69
2021/12/25 00:57:13;;;;;;;1068.95;996.20;;;;;;;-2.26;58.91;100525.91;687419;28;23468;-68
2021/12/25 00:57:36;;;;;;;1065.97;993.28;;;;;;;-2.29;59.02;100529.56;686572;28;983;-68
2021/12/25 00:57:57;;;;;;;1053.15;981.00;;;;;;;-2.31;59.05;100530.66;684392;28;69370;-68
2021/12/25 00:58:18;;;;;;;1055.43;983.25;;;;;;;-2.31;59.06;100534.13;686049;28;21511;-68
2021/12/25 00:58:40;;;;;;;1059.68;987.20;;;;;;;-2.32;59.16;100535.09;685920;28;22377;-68
2021/12/25 00:59:01;;;;;;;1052.68;980.58;;;;;;;-2.38;59.08;100525.75;685553;28;45215;-68
2021/12/25 00:59:22;;;;;;;1042.25;970.65;;;;;;;-2.33;59.00;100540.50;684540;28;21508;-68
2021/12/25 00:59:43;;;;;;;1042.65;970.88;;;;;;;-2.36;59.31;100531.78;683256;28;22449;-68
2021/12/25 01:00:09;;;;;;;1043.00;971.15;;;;;;;-2.36;59.24;100530.94;683369;28;22399;-68
2021/12/25 01:00:31;;;;;;;1042.57;970.78;;;;;;;-2.41;59.37;100539.16;680720;28;136352;-68
2021/12/25 01:00:52;;;;;;;1046.97;975.08;;;;;;;-2.41;59.34;100533.03;686879;28;22400;-68
2021/12/25 01:01:14;;;;;;;1055.22;983.03;;;;;;;-2.43;59.34;100530.50;682842;28;9779;-68
2021/12/25 01:01:37;;;;;;;1052.93;980.85;;;;;;;-2.44;59.35;100534.06;682506;28;21497;-68
2021/12/25 01:01:59;;;;;;;1047.05;975.05;;;;;;;-2.46;59.44;100538.63;679134;29;90680;-68
2021/12/25 01:02:20;;;;;;;1053.05;980.90;;;;;;;-2.46;59.36;100538.63;679754;28;23451;-68
2021/12/25 01:02:44;;;;;;;1058.28;985.95;;;;;;;-2.46;59.47;100538.63;676981;29;45284;-68
2021/12/25 01:03:06;;;;;;;1060.72;988.33;;;;;;;-2.48;59.63;100539.66;676701;29;92216;-68
2021/12/25 01:03:28;;;;;;;1061.63;989.10;;;;;;;-2.49;59.62;100536.19;678767;29;21580;-68
2021/12/25 01:03:50;;;;;;;1060.70;988.22;;;;;;;-2.50;59.70;100545.03;674472;29;69439;-68
2021/12/25 01:04:11;;;;;;;1060.30;987.80;;;;;;;-2.51;59.62;100543.34;677595;29;21530;-68
2021/12/25 01:04:33;;;;;;;1057.97;985.58;;;;;;;-2.50;59.54;100545.03;679364;29;45225;-68
2021/12/25 01:04:54;;;;;;;1060.60;988.08;;;;;;;-2.51;59.55;100550.44;682022;28;44366;-68
2021/12/25 01:05:17;;;;;;;1050.10;978.05;;;;;;;-2.51;59.47;100550.44;681809;28;21519;-68
2021/12/25 01:05:38;;;;;;;1045.10;973.20;;;;;;;-2.52;59.58;100549.59;683199;28;46277;-68
2021/12/25 01:06:00;;;;;;;1049.35;977.35;;;;;;;-2.53;59.67;100548.72;684644;28;21535;-68
2021/12/25 01:06:22;;;;;;;1051.88;979.63;;;;;;;-2.51;59.88;100550.44;681323;28;66821;-68
2021/12/25 01:06:44;;;;;;;1060.45;987.92;;;;;;;-2.51;59.94;100551.28;683635;28;21540;-68
2021/12/25 01:07:05;;;;;;;1056.20;983.90;;;;;;;-2.49;60.19;100545.88;681831;28;69358;-68
2021/12/25 01:07:26;;;;;;;1060.40;987.90;;;;;;;-2.49;60.12;100549.41;683382;28;22386;-68
2021/12/25 01:07:48;;;;;;;1061.55;988.88;;;;;;;-2.49;60.19;100552.03;679655;28;20963;-68
2021/12/25 01:08:15;;;;;;;1054.78;982.53;;;;;;;-2.47;60.24;100551.94;673080;29;136404;-68
2021/12/25 01:08:37;;;;;;;1053.88;981.75;;;;;;;-2.45;60.23;100547.41;674717;29;69430;-68
2021/12/25 01:08:58;;;;;;;1055.88;983.60;;;;;;;-2.48;60.05;100553.72;677642;29;22398;-68
2021/12/25 01:09:20;;;;;;;1052.20;980.15;;;;;;;-2.47;60.16;100550.13;677612;29;46392;-68
2021/12/25 01:09:42;;;;;;;1059.97;987.53;;;;;;;-2.44;60.30;100549.09;676610;29;46325;-68
2021/12/25 01:10:08;;;;;;;1064.10;991.40;;;;;;;-2.45;60.56;100550.03;678252;29;46304;-68
2021/12/25 01:10:32;;;;;;;1065.45;992.72;;;;;;;-2.43;60.51;100554.31;674362;29;137915;-69
2021/12/25 01:10:53;;;;;;;1045.07;973.17;;;;;;;-2.43;60.48;100562.22;677671;29;91950;-68
2021/12/25 01:11:15;;;;;;;1042.32;970.53;;;;;;;-2.44;60.32;100554.41;677240;29;22406;-68
2021/12/25 01:11:37;;;;;;;1043.28;971.40;;;;;;;-2.44;60.30;100557.03;679561;29;46336;-68
2021/12/25 01:12:00;;;;;;;1047.20;975.33;;;;;;;-2.40;60.63;100555.88;679298;29;69322;-68
2021/12/25 01:12:22;;;;;;;1054.80;982.53;;;;;;;-2.38;60.93;100548.72;677242;29;67444;-68
2021/12/25 01:12:56;;;;;;;1054.32;982.03;;;;;;;-2.33;61.53;100553.72;678345;29;21183;-68
2021/12/25 01:13:24;;;;;;;1047.95;975.95;;;;;;;-2.29;61.86;100547.25;677672;29;138048;-68
2021/12/25 01:13:50;;;;;;;1039.93;968.25;;;;;;;-2.24;62.05;100553.97;677443;29;138826;-68
2021/12/25 01:14:34;;;;;;;1048.95;976.95;;;;;;;-2.22;61.93;100552.06;679148;28;135990;-68
2021/12/25 01:15:30;;;;;;;1051.07;978.97;;;;;;;-2.21;61.69;100552.91;678088;28;137624;-68
2021/12/25 01:16:12;;;;;;;1055.50;983.20;;;;;;;-2.19;61.65;100558.97;676213;29;137687;-68
2021/12/25 01:17:02;;;;;;;1043.35;971.55;;;;;;;-2.20;61.47;100555.44;672848;29;137996;-68
2021/12/25 01:17:47;;;;;;;1051.88;979.78;;;;;;;-2.22;61.26;100553.88;676069;29;136055;-68
2021/12/25 01:19:41;;;;;;;1049.68;977.67;;;;;;;-2.25;61.41;100564.66;674102;29;137711;-69
2021/12/25 01:20:22;;;;;;;1053.88;981.78;;;;;;;-2.24;61.54;100561.03;670126;29;137739;-68
2021/12/25 01:21:19;;;;;;;1038.78;967.22;;;;;;;-2.26;61.50;100557.66;667259;29;137666;-68
2021/12/25 01:23:41;;;;;;;1044.85;972.95;;;;;;;-2.27;62.01;100563.88;666514;29;158148;-68
2021/12/25 01:26:05;;;;;;;1040.25;968.47;;;;;;;-2.36;61.54;100552.09;678871;28;137184;-68
2021/12/25 01:27:23;;;;;;;1044.75;972.92;;;;;;;-2.40;61.05;100562.03;667735;29;136383;-68
2021/12/25 01:29:21;;;;;;;1032.72;961.22;;;;;;;-2.42;61.41;100571.84;677075;29;102703;-68
2021/12/25 01:29:51;;;;;;;1046.22;974.22;;;;;;;-2.43;61.60;100569.28;678826;28;101677;-68
2021/12/25 01:30:17;;;;;;;1047.57;975.38;;;;;;;-2.44;61.54;100564.97;681812;28;160541;-68
2021/12/25 01:30:56;;;;;;;1043.80;971.97;;;;;;;-2.44;61.40;100568.47;680551;28;137690;-68
2021/12/25 01:31:23;;;;;;;1033.72;962.22;;;;;;;-2.46;61.40;100570.38;684739;28;137264;-68
2021/12/25 01:31:54;;;;;;;1045.93;974.00;;;;;;;-2.45;61.35;100572.03;685046;28;137840;-68
2021/12/25 01:33:45;;;;;;;1032.88;961.58;;;;;;;-2.48;61.33;100576.69;680270;28;156495;-68
2021/12/25 01:34:58;;;;;;;1053.15;981.05;;;;;;;-2.52;61.54;100583.97;676825;29;160537;-68
2021/12/25 01:36:12;;;;;;;1030.40;959.13;;;;;;;-2.57;61.23;100580.75;686158;28;135998;-68
2021/12/25 01:37:06;;;;;;;1052.28;980.22;;;;;;;-2.61;61.36;100581.91;685712;28;137957;-68
2021/12/25 01:38:05;;;;;;;1036.15;964.55;;;;;;;-2.68;61.62;100573.50;684784;28;136511;-68
2021/12/25 01:39:03;;;;;;;1045.72;973.80;;;;;;;-2.70;61.46;100578.03;685923;28;137635;-68
2021/12/25 01:39:55;;;;;;;1045.85;973.97;;;;;;;-2.74;61.54;100581.81;672134;28;137748;-68
2021/12/25 01:40:52;;;;;;;1046.90;974.80;;;;;;;-2.78;61.50;100585.59;682486;28;137308;-68
2021/12/25 01:47:48;;;;;;;1058.85;986.53;;;;;;;-2.73;63.01;100600.25;683787;28;137205;-68
2021/12/25 01:48:09;;;;;;;1062.88;990.28;;;;;;;-2.74;62.96;100598.53;681955;28;136437;-68
2021/12/25 01:48:34;;;;;;;1057.30;985.08;;;;;;;-2.75;62.77;100591.53;682303;28;45327;-68
2021/12/25 01:48:56;;;;;;;1056.22;984.05;;;;;;;-2.75;62.83;100594.16;677837;28;113572;-69
2021/12/25 01:49:18;;;;;;;1055.30;983.13;;;;;;;-2.76;62.78;100595.13;680230;29;44423;-69
2021/12/25 01:49:39;;;;;;;1057.68;985.38;;;;;;;-2.75;62.61;100602.09;684292;28;21503;-68
2021/12/25 01:50:00;;;;;;;1057.38;985.08;;;;;;;-2.76;62.89;100600.44;680741;28;42076;-68
2021/12/25 01:50:25;;;;;;;1053.85;981.70;;;;;;;-2.77;62.50;100595.22;683943;28;21655;-68
2021/12/25 01:50:46;;;;;;;1050.03;977.95;;;;;;;-2.79;62.51;100597.97;681529;28;91429;-68
2021/12/25 01:51:07;;;;;;;1055.50;983.17;;;;;;;-2.79;62.52;100602.38;684154;28;46400;-68
2021/12/25 01:51:28;;;;;;;1060.13;987.47;;;;;;;-2.81;62.54;100599.84;682583;28;21089;-68
2021/12/25 01:51:51;;;;;;;1055.60;983.28;;;;;;;-2.83;62.53;100596.44;683976;28;23194;-68
2021/12/25 01:52:12;;;;;;;1045.30;973.40;;;;;;;-2.85;62.48;100594.84;683365;28;44367;-69
2021/12/25 01:52:33;;;;;;;1056.22;983.83;;;;;;;-2.84;62.33;100600.03;684459;28;21553;-69
2021/12/25 01:52:57;;;;;;;1063.45;990.75;;;;;;;-2.87;62.51;100597.56;683084;28;4468;-68
2021/12/25 01:53:20;;;;;;;1063.57;991.05;;;;;;;-2.87;62.43;100602.84;682168;28;89922;-68
2021/12/25 01:53:41;;;;;;;1055.72;983.33;;;;;;;-2.90;62.46;100606.56;686261;28;44361;-68
2021/12/25 01:54:03;;;;;;;1047.78;975.80;;;;;;;-2.89;62.45;100604.75;686278;28;46369;-68
2021/12/25 01:54:25;;;;;;;1050.82;978.67;;;;;;;-2.91;62.46;100606.66;684018;28;23163;-68
2021/12/25 01:54:46;;;;;;;1050.38;978.22;;;;;;;-2.91;62.56;100604.84;682711;28;46404;-68
2021/12/25 01:55:11;;;;;;;1062.93;990.30;;;;;;;-2.94;62.44;100599.75;681559;28;22377;-68
2021/12/25 01:55:32;;;;;;;1065.20;992.40;;;;;;;-2.93;62.40;100609.38;678066;29;113466;-68
2021/12/25 01:55:54;;;;;;;1063.53;990.83;;;;;;;-2.94;62.49;100602.38;681633;28;22386;-68
2021/12/25 01:56:16;;;;;;;1067.03;994.17;;;;;;;-2.94;62.84;100602.38;680337;28;46405;-68
2021/12/25 01:56:39;;;;;;;1059.38;986.83;;;;;;;-2.93;62.84;100608.50;683318;28;46146;-68
2021/12/25 01:57:01;;;;;;;1058.47;986.08;;;;;;;-2.92;62.99;100610.22;679546;28;69463;-68
2021/12/25 01:57:22;;;;;;;1062.18;989.53;;;;;;;-2.92;63.14;100607.59;680397;28;47290;-68
2021/12/25 01:57:43;;;;;;;1049.30;977.10;;;;;;;-2.90;63.44;100603.91;681790;28;23463;-68
2021/12/25 01:58:06;;;;;;;1060.07;987.40;;;;;;;-2.92;63.43;100605.78;679548;29;22412;-68
2021/12/25 01:58:27;;;;;;;1065.80;993.03;;;;;;;-2.88;63.41;100610.88;677530;29;69415;-68
2021/12/25 01:58:49;;;;;;;1063.53;990.83;;;;;;;-2.87;63.60;100604.66;679510;29;22381;-68
2021/12/25 01:59:10;;;;;;;1059.68;987.17;;;;;;;-2.86;63.51;100606.38;680831;28;46302;-68
2021/12/25 01:59:31;;;;;;;1065.35;992.55;;;;;;;-2.84;63.75;100609.75;681703;29;22369;-68
2021/12/25 01:59:53;;;;;;;1056.72;984.25;;;;;;;-2.84;63.61;100613.25;678183;29;21376;-68
2021/12/25 02:00:18;;;;;;;1058.00;985.50;;;;;;;-2.83;63.64;100612.31;675330;29;44380;-68
2021/12/25 02:00:43;;;;;;;1060.28;987.67;;;;;;;-2.84;63.71;100607.13;676959;29;113502;-68
2021/12/25 02:01:06;;;;;;;1066.65;993.85;;;;;;;-2.84;63.62;100610.59;678267;29;113545;-68
2021/12/25 02:01:28;;;;;;;1069.75;996.75;;;;;;;-2.84;63.61;100607.97;680182;28;92217;-68
2021/12/25 02:01:49;;;;;;;1062.55;989.85;;;;;;;-2.85;63.72;100606.28;685965;28;22399;-68
2021/12/25 02:02:10;;;;;;;1060.60;988.00;;;;;;;-2.84;63.68;100613.25;687835;28;22404;-68
2021/12/25 02:02:32;;;;;;;1053.60;981.20;;;;;;;-2.85;63.60;100611.56;688339;28;45302;-68
2021/12/25 02:02:55;;;;;;;1063.78;991.00;;;;;;;-2.86;63.59;100612.50;688059;28;46225;-68
2021/12/25 02:03:18;;;;;;;1058.40;985.90;;;;;;;-2.87;63.58;100610.78;684696;28;67441;-68
2021/12/25 02:03:41;;;;;;;1047.22;975.20;;;;;;;-2.91;63.54;100610.13;685322;28;69507;-68
2021/12/25 02:04:02;;;;;;;1058.00;985.53;;;;;;;-2.91;63.28;100610.13;682204;28;46242;-68
2021/12/25 02:04:23;;;;;;;1060.75;988.08;;;;;;;-2.92;63.33;100612.88;680174;29;45190;-68
2021/12/25 02:04:44;;;;;;;1067.95;995.15;;;;;;;-2.92;63.57;100615.50;681508;29;21446;-68